TimeCDT,TemperatureF,Dew PointF,Humidity,Sea Level PressureIn,VisibilityMPH,Wind Direction,Wind SpeedMPH,Gust SpeedMPH,PrecipitationIn,Events,Conditions,WindDirDegrees,DateUTC
12:15 AM,27.5,19.4,72,30.22,10.0,West,6.9,-,N/A,,Clear,270,2013-04-02 05:15:00
12:35 AM,27.3,18.7,70,30.23,10.0,West,5.8,-,N/A,,Clear,270,2013-04-02 05:35:00
12:55 AM,26.6,19.4,74,30.23,10.0,West,6.9,-,N/A,,Clear,270,2013-04-02 05:55:00
1:15 AM,27.0,18.9,72,30.23,10.0,West,5.8,-,N/A,,Clear,270,2013-04-02 06:15:00
1:35 AM,26.8,19.0,73,30.24,10.0,West,5.8,-,N/A,,Clear,260,2013-04-02 06:35:00
1:55 AM,26.6,19.2,74,30.24,10.0,West,6.9,-,N/A,,Clear,270,2013-04-02 06:55:00
2:15 AM,26.4,18.5,72,30.24,10.0,West,6.9,-,N/A,,Clear,270,2013-04-02 07:15:00
2:35 AM,26.4,18.7,73,30.24,10.0,West,5.8,-,N/A,,Clear,260,2013-04-02 07:35:00
2:55 AM,26.2,19.9,77,30.24,10.0,West,6.9,-,N/A,,Clear,260,2013-04-02 07:55:00
3:15 AM,25.5,19.4,78,30.23,10.0,West,5.8,-,N/A,,Clear,270,2013-04-02 08:15:00
3:35 AM,25.9,19.4,76,30.23,10.0,West,6.9,-,N/A,,Clear,270,2013-04-02 08:35:00
3:55 AM,25.7,19.4,77,30.24,10.0,West,5.8,-,N/A,,Clear,270,2013-04-02 08:55:00
4:15 AM,25.5,18.9,76,30.24,10.0,West,8.1,-,N/A,,Clear,270,2013-04-02 09:15:00
4:35 AM,24.8,19.0,79,30.24,10.0,West,5.8,-,N/A,,Clear,260,2013-04-02 09:35:00
4:55 AM,25.3,19.2,78,30.24,10.0,West,4.6,-,N/A,,Clear,260,2013-04-02 09:55:00
5:15 AM,24.8,19.4,80,30.25,10.0,WSW,4.6,-,N/A,,Clear,240,2013-04-02 10:15:00
5:35 AM,24.8,19.4,80,30.25,10.0,WSW,5.8,-,N/A,,Clear,250,2013-04-02 10:35:00
5:55 AM,24.8,19.4,80,30.25,10.0,WSW,4.6,-,N/A,,Clear,250,2013-04-02 10:55:00
6:15 AM,24.8,19.8,81,30.26,10.0,West,5.8,-,N/A,,Clear,260,2013-04-02 11:15:00
6:35 AM,23.9,19.2,82,30.26,10.0,WSW,5.8,-,N/A,,Clear,250,2013-04-02 11:35:00
6:55 AM,24.4,19.8,82,30.26,10.0,WSW,4.6,-,N/A,,Clear,250,2013-04-02 11:55:00
7:15 AM,24.8,20.1,82,30.27,10.0,WSW,5.8,-,N/A,,Clear,250,2013-04-02 12:15:00
7:35 AM,26.1,21.2,82,30.28,10.0,West,5.8,-,N/A,,Clear,270,2013-04-02 12:35:00
7:55 AM,27.1,21.2,78,30.28,10.0,West,8.1,-,N/A,,Clear,280,2013-04-02 12:55:00
8:15 AM,28.8,21.0,73,30.29,10.0,WNW,9.2,-,N/A,,Clear,290,2013-04-02 13:15:00
8:35 AM,30.4,21.6,70,30.29,10.0,WNW,8.1,-,N/A,,Clear,290,2013-04-02 13:35:00
8:55 AM,31.5,20.8,65,30.30,10.0,WNW,5.8,-,N/A,,Clear,300,2013-04-02 13:55:00
9:15 AM,33.8,21.4,60,30.30,10.0,WNW,5.8,-,N/A,,Clear,300,2013-04-02 14:15:00
9:35 AM,33.8,19.0,55,30.30,10.0,West,5.8,-,N/A,,Clear,280,2013-04-02 14:35:00
9:55 AM,33.8,15.4,47,30.30,10.0,West,5.8,-,N/A,,Clear,280,2013-04-02 14:55:00
10:15 AM,36.0,13.8,40,30.30,10.0,West,8.1,-,N/A,,Clear,260,2013-04-02 15:15:00
10:35 AM,36.1,11.8,37,30.30,10.0,West,9.2,-,N/A,,Clear,260,2013-04-02 15:35:00
10:55 AM,38.7,13.5,36,30.30,10.0,West,6.9,-,N/A,,Clear,270,2013-04-02 15:55:00
11:15 AM,38.1,11.3,33,30.30,10.0,West,10.4,-,N/A,,Clear,260,2013-04-02 16:15:00
11:35 AM,38.7,10.8,32,30.30,10.0,West,9.2,-,N/A,,Clear,270,2013-04-02 16:35:00
11:55 AM,38.7,9.1,30,30.29,10.0,West,10.4,-,N/A,,Clear,280,2013-04-02 16:55:00
12:15 PM,39.0,10.0,30,30.29,10.0,WSW,11.5,-,N/A,,Clear,250,2013-04-02 17:15:00
12:35 PM,41.0,8.4,26,30.28,10.0,West,15.0,19.6,N/A,,Clear,260,2013-04-02 17:35:00
12:55 PM,40.3,10.4,29,30.28,10.0,WSW,9.2,19.6,N/A,,Clear,250,2013-04-02 17:55:00
1:15 PM,41.2,10.8,29,30.27,10.0,West,10.4,-,N/A,,Clear,280,2013-04-02 18:15:00
1:35 PM,41.2,10.4,28,30.27,10.0,WSW,10.4,19.6,N/A,,Scattered Clouds,250,2013-04-02 18:35:00
1:55 PM,41.2,10.0,28,30.26,10.0,WSW,10.4,19.6,N/A,,Scattered Clouds,240,2013-04-02 18:55:00
2:15 PM,41.2,10.0,28,30.26,10.0,WSW,16.1,21.9,N/A,,Scattered Clouds,240,2013-04-02 19:15:00
2:35 PM,43.5,12.4,28,30.26,10.0,West,10.4,19.6,N/A,,Scattered Clouds,260,2013-04-02 19:35:00
2:55 PM,41.2,10.0,28,30.26,10.0,West,8.1,17.3,N/A,,Scattered Clouds,270,2013-04-02 19:55:00
3:15 PM,43.7,11.5,27,30.25,10.0,West,13.8,17.3,N/A,,Scattered Clouds,260,2013-04-02 20:15:00
3:35 PM,42.1,10.8,28,30.25,10.0,West,10.4,19.6,N/A,,Scattered Clouds,270,2013-04-02 20:35:00
3:55 PM,42.3,13.3,31,30.25,10.0,WNW,11.5,18.4,N/A,,Mostly Cloudy,290,2013-04-02 20:55:00
4:15 PM,41.2,13.6,33,30.25,10.0,NW,15.0,19.6,N/A,,Mostly Cloudy,310,2013-04-02 21:15:00
4:35 PM,41.0,11.8,30,30.26,10.0,WNW,8.1,26.5,N/A,,Mostly Cloudy,300,2013-04-02 21:35:00
4:55 PM,41.2,12.2,31,30.26,10.0,WNW,12.7,19.6,N/A,,Scattered Clouds,290,2013-04-02 21:55:00
5:15 PM,41.2,12.0,30,30.26,10.0,WNW,10.4,21.9,N/A,,Clear,290,2013-04-02 22:15:00
5:35 PM,41.2,12.2,31,30.26,10.0,NW,12.7,-,N/A,,Clear,310,2013-04-02 22:35:00
5:55 PM,41.2,11.8,30,30.26,10.0,WNW,16.1,20.7,N/A,,Clear,290,2013-04-02 22:55:00
6:15 PM,40.1,11.3,31,30.27,10.0,West,11.5,-,N/A,,Clear,270,2013-04-02 23:15:00
6:35 PM,38.7,11.7,33,30.27,10.0,West,15.0,21.9,N/A,,Clear,270,2013-04-02 23:35:00
6:55 PM,38.7,14.0,37,30.27,10.0,WNW,11.5,-,N/A,,Scattered Clouds,300,2013-04-02 23:55:00
7:15 PM,37.8,15.4,40,30.28,10.0,WNW,5.8,17.3,N/A,,Scattered Clouds,290,2013-04-03 00:15:00
7:35 PM,36.1,13.3,39,30.28,10.0,WNW,9.2,16.1,N/A,,Clear,290,2013-04-03 00:35:00
7:55 PM,34.3,14.0,43,30.28,10.0,WNW,6.9,-,N/A,,Clear,300,2013-04-03 00:55:00
8:15 PM,33.8,14.9,46,30.29,10.0,WNW,6.9,-,N/A,,Clear,290,2013-04-03 01:15:00
8:35 PM,33.8,16.7,50,30.30,10.0,West,5.8,-,N/A,,Clear,280,2013-04-03 01:35:00
8:55 PM,33.8,15.4,47,30.31,10.0,West,4.6,-,N/A,,Clear,270,2013-04-03 01:55:00
9:15 PM,33.8,17.4,51,30.31,10.0,West,3.5,-,N/A,,Clear,260,2013-04-03 02:15:00
9:35 PM,33.8,19.8,56,30.32,10.0,West,3.5,-,N/A,,Clear,260,2013-04-03 02:35:00
9:55 PM,32.2,18.1,56,30.33,10.0,West,4.6,-,N/A,,Clear,280,2013-04-03 02:55:00
10:15 PM,29.1,18.1,64,30.33,10.0,NW,3.5,-,N/A,,Clear,310,2013-04-03 03:15:00
10:35 PM,32.2,21.2,64,30.33,10.0,Calm,Calm,-,N/A,,Clear,0,2013-04-03 03:35:00
10:55 PM,31.3,20.8,65,30.34,10.0,NW,3.5,-,N/A,,Clear,310,2013-04-03 03:55:00
11:15 PM,30.2,20.8,68,30.34,10.0,NW,5.8,-,N/A,,Clear,320,2013-04-03 04:15:00
11:35 PM,31.5,20.8,65,30.34,10.0,NNW,5.8,-,N/A,,Clear,330,2013-04-03 04:35:00
11:55 PM,30.2,19.4,64,30.34,10.0,NW,4.6,-,N/A,,Clear,320,2013-04-03 04:55:00